Golden Meadow, Louisiana
Current Conditions -  °F | °C
As of 1:15 PM on Friday 28 Nov 2014 (Local Time) from KXPY Reporting Station
Clear Clear  
Wind Chill: 15°   Ceiling: Unl
Heat Index: 15°   Visibility: 10mi
Dew Point:   Wind: 10mph
Humidity: 67%   Direction: 80°E
Pressure: 30.36"   Gusts: NA
Location:  29.38°N, 90.26°W
Report Text: KXPY 281915Z AUTO 08009KT 10SM CLR 15/09 A3036 RMK A01
Loading
Personal Weather Stations






























Interactive Weather Map New forecast layout! Learn more

10-Day Weather Forecast

Advertisements
Track Severe Weather on mobile